createdAt,value
2022-09-11T00:01:54.029Z,61.78
2022-09-11T00:04:23.354Z,69.75
2022-09-11T00:06:52.609Z,66.95
2022-09-11T00:09:22.590Z,69.22
2022-09-11T00:11:51.625Z,68.18
2022-09-11T00:14:21.925Z,63.08
2022-09-11T00:16:51.224Z,67.07
2022-09-11T00:19:23.362Z,64.78
2022-09-11T00:21:52.775Z,60.58
2022-09-11T00:24:21.812Z,70.20
2022-09-11T00:26:51.824Z,71.43
2022-09-11T00:29:21.235Z,71.07
2022-09-11T00:31:50.627Z,72.25
2022-09-11T00:34:20.494Z,72.05
2022-09-11T00:36:49.754Z,65.53
2022-09-11T00:39:19.225Z,67.00
2022-09-11T00:41:48.570Z,74.03
2022-09-11T00:44:20.853Z,67.93
2022-09-11T00:46:54.464Z,70.10
2022-09-11T00:49:33.660Z,72.22
2022-09-11T00:52:31.564Z,70.00
2022-09-11T00:55:10.300Z,71.28
2022-09-11T00:57:50.768Z,82.43
2022-09-11T01:00:21.079Z,101.95
2022-09-11T01:02:53.293Z,85.30
2022-09-11T01:05:25.033Z,71.32
2022-09-11T01:07:57.449Z,79.05
2022-09-11T01:10:57.349Z,82.40
2022-09-11T01:13:39.797Z,76.82
2022-09-11T01:16:21.088Z,71.95
2022-09-11T01:19:38.799Z,79.82
2022-09-11T01:22:46.496Z,76.68
2022-09-11T01:25:33.057Z,81.88
2022-09-11T01:28:10.812Z,84.00
2022-09-11T01:30:48.634Z,73.05
2022-09-11T01:33:41.900Z,79.28
2022-09-11T01:36:42.066Z,72.13
2022-09-11T01:39:12.908Z,73.50
2022-09-11T01:41:54.257Z,78.68
2022-09-11T01:44:45.708Z,63.10
2022-09-11T01:47:17.620Z,72.47
2022-09-11T01:50:22.912Z,72.07
2022-09-11T01:53:01.734Z,73.63
2022-09-11T01:55:56.796Z,73.55
2022-09-11T01:58:31.913Z,70.25
2022-09-11T02:01:08.557Z,72.60
2022-09-11T02:04:09.036Z,93.78
2022-09-11T02:06:47.516Z,88.63
2022-09-11T02:09:23.296Z,73.22
2022-09-11T02:11:57.374Z,84.03
2022-09-11T02:17:17.385Z,70.80
2022-09-11T02:19:46.825Z,76.35
2022-09-11T02:22:15.885Z,74.43
2022-09-11T02:24:45.846Z,72.93
2022-09-11T02:27:23.803Z,66.75
2022-09-11T02:29:55.466Z,76.82
2022-09-11T02:32:26.839Z,70.05
2022-09-11T02:34:58.170Z,69.97
2022-09-11T02:37:40.656Z,70.05
2022-09-11T02:40:42.669Z,65.85
2022-09-11T02:43:28.623Z,70.28
2022-09-11T02:46:28.450Z,134.80
2022-09-11T02:49:16.035Z,78.82
2022-09-11T02:51:57.266Z,59.42
2022-09-11T02:55:03.217Z,60.33
2022-09-11T02:58:09.530Z,62.75
2022-09-11T03:00:41.780Z,57.83
2022-09-11T03:03:11.229Z,49.40
2022-09-11T03:05:41.428Z,53.33
2022-09-11T03:08:11.688Z,105.53
2022-09-11T03:10:41.464Z,69.20
2022-09-11T03:13:15.135Z,60.75
2022-09-11T03:15:46.790Z,72.82
2022-09-11T03:18:17.008Z,53.20
2022-09-11T03:20:48.523Z,52.80
2022-09-11T03:23:19.256Z,49.85
2022-09-11T03:25:48.739Z,53.95
2022-09-11T03:28:18.410Z,45.92
2022-09-11T03:30:48.354Z,55.47
2022-09-11T03:33:21.098Z,50.20
2022-09-11T03:35:50.761Z,54.75
2022-09-11T03:38:21.819Z,47.35
2022-09-11T03:40:51.830Z,49.67
2022-09-11T03:43:20.631Z,60.78
2022-09-11T03:45:53.916Z,51.72
2022-09-11T03:48:23.310Z,53.45
2022-09-11T03:50:52.831Z,53.75
2022-09-11T03:53:22.938Z,48.05
2022-09-11T03:55:52.023Z,46.17
2022-09-11T03:58:21.502Z,47.58
2022-09-11T04:00:50.791Z,48.65
2022-09-11T04:03:20.308Z,53.50
2022-09-11T04:06:10.162Z,44.58
2022-09-11T04:08:42.209Z,50.10
2022-09-11T04:11:13.686Z,46.55
2022-09-11T04:13:44.629Z,45.47
2022-09-11T04:16:18.965Z,46.55
2022-09-11T04:18:54.619Z,49.38
2022-09-11T04:21:25.667Z,49.30
2022-09-11T04:23:58.828Z,45.78
2022-09-11T04:26:32.179Z,55.78
2022-09-11T04:29:11.381Z,51.50
2022-09-11T04:31:42.429Z,42.70
2022-09-11T04:34:14.715Z,55.70
2022-09-11T04:36:44.825Z,52.20
2022-09-11T04:39:19.704Z,47.20
2022-09-11T04:41:50.682Z,340.35
2022-09-11T04:44:21.881Z,74.38
2022-09-11T04:46:51.621Z,80.47
2022-09-11T04:49:21.960Z,65.13
2022-09-11T04:51:51.561Z,70.97
2022-09-11T04:54:25.342Z,50.50
2022-09-11T04:56:55.931Z,53.38
2022-09-11T04:59:25.820Z,54.15
2022-09-11T05:02:04.643Z,55.30
2022-09-11T05:04:37.515Z,52.17
2022-09-11T05:07:07.384Z,62.20
2022-09-11T05:09:37.095Z,57.08
2022-09-11T05:12:07.364Z,59.83
2022-09-11T05:14:39.149Z,48.43
2022-09-11T05:17:08.923Z,45.58
2022-09-11T05:19:42.519Z,53.08
2022-09-11T05:22:11.974Z,60.60
2022-09-11T05:24:46.456Z,65.05
2022-09-11T05:27:16.346Z,50.60
2022-09-11T05:29:46.892Z,52.08
2022-09-11T05:32:17.485Z,63.88
2022-09-11T05:34:47.253Z,66.10
2022-09-11T05:37:18.759Z,76.22
2022-09-11T05:39:49.877Z,55.70
2022-09-11T05:42:23.191Z,53.85
2022-09-11T05:44:56.279Z,52.42
2022-09-11T05:49:58.017Z,55.58
2022-09-11T05:52:31.762Z,47.75
2022-09-11T05:55:01.167Z,51.95
2022-09-11T05:57:32.307Z,67.82
2022-09-11T06:00:02.155Z,61.90
2022-09-11T06:02:34.588Z,82.97
2022-09-11T06:05:04.309Z,64.10
2022-09-11T06:07:36.685Z,63.97
2022-09-11T06:10:06.036Z,59.90
2022-09-11T06:12:35.541Z,62.05
2022-09-11T06:15:05.275Z,71.80
2022-09-11T06:17:34.436Z,64.43
2022-09-11T06:20:03.464Z,56.58
2022-09-11T06:22:34.769Z,62.83
2022-09-11T06:25:04.344Z,59.22
2022-09-11T06:27:33.785Z,60.00
2022-09-11T06:30:03.278Z,57.95
2022-09-11T06:32:37.847Z,52.22
2022-09-11T06:35:08.607Z,46.17
2022-09-11T06:37:38.248Z,58.20
2022-09-11T06:40:09.767Z,48.90
2022-09-11T06:42:39.474Z,54.55
2022-09-11T06:45:10.089Z,43.42
2022-09-11T06:47:40.075Z,51.88
2022-09-11T06:50:09.909Z,46.38
2022-09-11T06:53:00.018Z,52.63
2022-09-11T06:55:32.837Z,42.40
2022-09-11T06:58:10.070Z,45.75
2022-09-11T07:00:39.901Z,47.95
2022-09-11T07:03:11.195Z,43.20
2022-09-11T07:05:47.200Z,41.58
2022-09-11T07:08:19.805Z,48.97
2022-09-11T07:10:53.047Z,47.22
2022-09-11T07:13:25.525Z,46.25
2022-09-11T07:16:06.260Z,47.55
2022-09-11T07:18:40.886Z,60.75
2022-09-11T07:21:17.696Z,53.38
2022-09-11T07:23:50.796Z,41.50
2022-09-11T07:26:20.703Z,40.17
2022-09-11T07:28:52.696Z,47.85
2022-09-11T07:31:24.718Z,41.75
2022-09-11T07:33:55.014Z,46.45
2022-09-11T07:36:28.143Z,40.88
2022-09-11T07:38:57.621Z,42.58
2022-09-11T07:41:34.759Z,45.33
2022-09-11T07:44:11.605Z,39.45
2022-09-11T07:46:42.450Z,44.83
2022-09-11T07:49:14.423Z,39.13
2022-09-11T07:51:45.414Z,37.40
2022-09-11T07:54:18.147Z,46.10
2022-09-11T07:56:47.587Z,49.97
2022-09-11T07:59:19.465Z,63.72
2022-09-11T08:01:54.650Z,750.45
2022-09-11T08:04:24.500Z,320.92
2022-09-11T08:06:54.344Z,480.38
2022-09-11T08:09:29.706Z,431.85
2022-09-11T08:12:02.282Z,239.95
2022-09-11T08:17:10.549Z,168.50
2022-09-11T08:19:41.948Z,104.88
2022-09-11T08:22:12.929Z,20.60
2022-09-11T08:24:46.159Z,31.58
2022-09-11T08:27:18.837Z,19.08
2022-09-11T08:29:49.088Z,16.08
2022-09-11T08:32:19.523Z,14.65
2022-09-11T08:34:49.817Z,20.92
2022-09-11T08:37:19.246Z,14.90
2022-09-11T08:39:50.184Z,17.60
2022-09-11T08:42:19.584Z,17.02
2022-09-11T08:45:00.233Z,10.23
2022-09-11T08:47:50.807Z,9.88
2022-09-11T08:50:28.821Z,10.65
2022-09-11T08:53:02.634Z,10.75
2022-09-11T08:55:42.956Z,7.93
2022-09-11T08:58:19.317Z,13.27
2022-09-11T09:01:15.722Z,14.65
2022-09-11T09:04:42.723Z,9.68
2022-09-11T09:07:34.803Z,8.23
2022-09-11T09:10:33.967Z,8.63
2022-09-11T09:13:16.597Z,11.45
2022-09-11T09:16:10.930Z,8.88
2022-09-11T09:18:52.350Z,11.82
2022-09-11T09:21:39.724Z,9.88
2022-09-11T09:24:23.046Z,12.82
2022-09-11T09:26:57.553Z,13.40
2022-09-11T09:32:05.706Z,12.20
2022-09-11T09:34:39.962Z,14.77
2022-09-11T09:37:21.646Z,12.48
2022-09-11T09:39:52.505Z,15.20
2022-09-11T09:42:52.855Z,9.55
2022-09-11T09:45:44.365Z,6.63
2022-09-11T09:48:14.151Z,8.70
2022-09-11T09:50:48.021Z,17.20
2022-09-11T09:53:45.082Z,9.90
2022-09-11T09:56:19.107Z,12.68
2022-09-11T09:59:03.668Z,8.82
2022-09-11T10:01:52.658Z,8.45
2022-09-11T10:04:31.506Z,16.65
2022-09-11T10:07:12.814Z,8.30
2022-09-11T10:09:47.897Z,11.85
2022-09-11T10:12:29.256Z,7.10
2022-09-11T10:15:01.549Z,8.98
2022-09-11T10:17:30.887Z,8.48
2022-09-11T10:20:20.749Z,9.52
2022-09-11T10:22:54.243Z,11.32
2022-09-11T10:25:31.321Z,6.10
2022-09-11T10:28:10.409Z,12.27
2022-09-11T10:30:42.734Z,6.35
2022-09-11T10:33:33.035Z,13.13
2022-09-11T10:36:05.799Z,10.15
2022-09-11T10:38:41.449Z,10.20
2022-09-11T10:41:24.159Z,7.72
2022-09-11T10:44:05.694Z,8.18
2022-09-11T10:46:41.427Z,7.68
2022-09-11T10:49:23.344Z,6.43
2022-09-11T10:52:11.417Z,8.17
2022-09-11T10:54:45.937Z,8.50
2022-09-11T10:57:44.805Z,7.70
2022-09-11T11:00:24.059Z,6.57
2022-09-11T11:02:57.675Z,12.40
2022-09-11T11:05:50.692Z,8.45
2022-09-11T11:08:51.893Z,14.05
2022-09-11T11:11:42.396Z,9.45
2022-09-11T11:14:33.190Z,6.28
2022-09-11T11:17:24.164Z,8.30
2022-09-11T11:20:08.903Z,9.63
2022-09-11T11:22:59.989Z,9.75
2022-09-11T11:25:49.767Z,8.00
2022-09-11T11:28:26.128Z,10.68
2022-09-11T11:31:13.179Z,5.75
2022-09-11T11:33:52.755Z,12.27
2022-09-11T11:36:34.174Z,6.38
2022-09-11T11:39:21.963Z,7.47
2022-09-11T11:42:16.860Z,10.73
2022-09-11T11:44:55.830Z,7.45
2022-09-11T11:47:31.177Z,6.78
2022-09-11T11:50:09.864Z,12.90
2022-09-11T11:53:11.071Z,11.75
2022-09-11T11:56:13.470Z,6.75
2022-09-11T11:58:56.864Z,6.00
2022-09-11T12:01:40.238Z,10.82
2022-09-11T12:04:39.729Z,11.52
2022-09-11T12:07:20.753Z,7.63
2022-09-11T12:09:52.414Z,13.85
2022-09-11T12:12:25.102Z,12.38
2022-09-11T12:15:04.339Z,5.95
2022-09-11T12:17:37.962Z,6.97
2022-09-11T12:20:13.496Z,6.70
2022-09-11T12:22:51.379Z,10.63
2022-09-11T12:25:20.614Z,8.23
2022-09-11T12:27:57.241Z,8.32
2022-09-11T12:30:29.725Z,8.05
2022-09-11T12:38:15.659Z,9.65
2022-09-11T12:40:57.380Z,18.05
2022-09-11T12:43:39.345Z,17.25
2022-09-11T12:46:15.063Z,13.87
2022-09-11T12:49:00.289Z,13.38
2022-09-11T12:51:44.177Z,8.05
2022-09-11T12:54:28.809Z,10.02
2022-09-11T12:57:06.922Z,12.20
2022-09-11T12:59:42.992Z,15.13
2022-09-11T14:50:21.158Z,10.65
2022-09-11T14:52:51.040Z,12.00
2022-09-11T14:55:21.836Z,12.73
2022-09-11T14:57:51.446Z,9.63
2022-09-11T15:00:21.693Z,15.70
2022-09-11T15:02:51.517Z,10.60
2022-09-11T15:05:24.143Z,15.45
2022-09-11T15:10:24.211Z,11.35
2022-09-11T15:12:53.560Z,22.90
2022-09-11T15:15:28.894Z,16.52
2022-09-11T15:17:59.040Z,14.32
2022-09-11T15:20:28.863Z,13.18
2022-09-11T15:22:58.596Z,14.48
2022-09-11T15:25:28.011Z,17.58
2022-09-11T15:27:58.074Z,14.18
2022-09-11T15:30:28.825Z,13.07
2022-09-11T15:32:58.566Z,13.77
2022-09-11T15:35:32.711Z,23.65
2022-09-11T15:38:02.728Z,17.13
2022-09-11T15:40:31.822Z,16.92
2022-09-11T15:43:01.428Z,14.30
2022-09-11T15:45:31.365Z,20.88
2022-09-11T15:48:01.270Z,22.75
2022-09-11T15:50:31.413Z,20.40
2022-09-11T15:53:00.973Z,52.72
2022-09-11T15:55:31.517Z,42.67
2022-09-11T15:58:02.104Z,52.03
2022-09-11T16:00:31.585Z,47.60
2022-09-11T16:03:00.766Z,47.75
2022-09-11T16:05:32.369Z,49.65
2022-09-11T16:08:02.571Z,41.30
2022-09-11T16:10:32.422Z,39.78
2022-09-11T16:13:03.092Z,43.35
2022-09-11T16:18:09.530Z,50.20
2022-09-11T16:20:42.755Z,48.60
2022-09-11T16:23:13.712Z,50.10
2022-09-11T16:25:44.229Z,49.38
2022-09-11T16:28:15.562Z,54.30
2022-09-11T16:30:49.483Z,49.05
2022-09-11T16:33:21.376Z,46.08
2022-09-11T16:36:07.994Z,52.80
2022-09-11T16:38:44.787Z,52.75
2022-09-11T16:41:31.027Z,43.72
2022-09-11T16:44:02.241Z,46.58
2022-09-11T16:46:35.565Z,48.78
2022-09-11T16:49:07.247Z,49.17
2022-09-11T16:51:37.102Z,71.28
2022-09-11T16:54:07.296Z,58.85
2022-09-11T16:56:36.992Z,58.90
2022-09-11T16:59:09.286Z,57.42
2022-09-11T17:01:41.931Z,53.35
2022-09-11T17:04:13.056Z,50.97
2022-09-11T17:06:42.682Z,62.20
2022-09-11T17:09:12.706Z,53.55
2022-09-11T17:11:43.047Z,45.97
2022-09-11T17:14:13.699Z,64.60
2022-09-11T17:16:43.114Z,53.45
2022-09-11T17:19:15.261Z,93.88
2022-09-11T17:21:49.247Z,171.80
2022-09-11T17:24:23.485Z,141.77
2022-09-11T17:26:55.166Z,122.40
2022-09-11T17:29:25.127Z,92.15
2022-09-11T17:32:23.702Z,79.35
2022-09-11T17:34:49.062Z,47.67
2022-09-11T17:37:19.156Z,50.72
2022-09-11T17:39:48.612Z,34.13
2022-09-11T17:42:19.060Z,29.02
2022-09-11T17:44:49.178Z,22.10
2022-09-11T17:47:19.193Z,19.77
2022-09-11T17:49:48.311Z,22.20
2022-09-11T17:52:20.458Z,25.52
2022-09-11T17:54:50.267Z,21.00
2022-09-11T17:57:19.950Z,21.00
2022-09-11T17:59:52.569Z,23.42
2022-09-11T18:02:22.673Z,22.33
2022-09-11T18:04:52.138Z,25.58
2022-09-11T18:07:21.997Z,17.08
2022-09-11T18:09:56.556Z,22.25
2022-09-11T18:12:28.118Z,23.42
2022-09-11T18:15:00.388Z,19.63
2022-09-11T18:17:31.550Z,21.08
2022-09-11T18:20:01.547Z,19.02
2022-09-11T18:22:31.329Z,22.05
2022-09-11T18:25:00.880Z,31.05
2022-09-11T18:27:29.904Z,24.90
2022-09-11T18:29:59.904Z,24.00
2022-09-11T18:32:29.999Z,27.35
2022-09-11T18:35:00.324Z,21.33
2022-09-11T18:37:29.411Z,19.58
2022-09-11T18:40:00.000Z,14.20
2022-09-11T18:42:30.041Z,16.77
2022-09-11T18:45:00.072Z,18.92
2022-09-11T18:47:31.980Z,17.17
2022-09-11T18:50:01.951Z,18.02
2022-09-11T18:52:32.625Z,15.88
2022-09-11T18:55:02.301Z,15.20
2022-09-11T18:57:31.578Z,15.25
2022-09-11T19:00:01.384Z,14.63
2022-09-11T19:02:32.403Z,15.07
2022-09-11T19:05:02.632Z,16.02
2022-09-11T19:07:33.328Z,19.23
2022-09-11T19:10:02.617Z,17.02
2022-09-11T19:12:31.845Z,15.25
2022-09-11T19:15:02.024Z,16.05
2022-09-11T19:17:31.127Z,15.18
2022-09-11T19:20:00.646Z,16.73
2022-09-11T19:22:31.484Z,15.52
2022-09-11T19:25:00.821Z,18.42
2022-09-11T19:27:32.793Z,18.23
2022-09-11T19:30:01.905Z,16.45
2022-09-11T19:32:32.538Z,20.15
2022-09-11T19:35:01.977Z,16.13
2022-09-11T19:37:30.931Z,19.98
2022-09-11T19:40:01.928Z,16.15
2022-09-11T19:42:32.335Z,16.25
2022-09-11T19:45:02.340Z,20.13
2022-09-11T19:47:31.329Z,18.23
2022-09-11T19:50:00.750Z,15.35
2022-09-11T19:52:33.037Z,17.40
2022-09-11T19:55:02.864Z,21.20
2022-09-11T19:57:32.819Z,20.33
2022-09-11T20:00:01.747Z,19.35
2022-09-11T20:02:33.984Z,16.23
2022-09-11T20:05:03.360Z,19.83
2022-09-11T20:07:32.963Z,17.45
2022-09-11T20:10:01.980Z,19.55
2022-09-11T20:12:38.089Z,21.67
2022-09-11T20:15:08.817Z,19.70
2022-09-11T20:17:38.219Z,18.10
2022-09-11T20:20:08.630Z,23.92
2022-09-11T20:22:38.193Z,20.20
2022-09-11T20:25:07.553Z,23.95
2022-09-11T20:27:37.532Z,24.23
2022-09-11T20:30:07.239Z,28.77
2022-09-11T20:32:40.328Z,19.08
2022-09-11T20:35:10.825Z,25.75
2022-09-11T20:37:40.348Z,26.02
2022-09-11T20:40:10.475Z,25.23
2022-09-11T20:42:41.146Z,17.75
2022-09-11T20:45:10.697Z,25.48
2022-09-11T20:47:40.792Z,23.10
2022-09-11T20:50:11.191Z,29.42
2022-09-11T20:52:40.293Z,32.40
2022-09-11T20:55:10.108Z,31.60
2022-09-11T20:57:39.588Z,27.55
2022-09-11T21:00:10.176Z,22.05
2022-09-11T21:02:39.258Z,21.55
2022-09-11T21:05:08.427Z,31.48
2022-09-11T21:07:37.744Z,29.45
2022-09-11T21:10:07.354Z,35.50
2022-09-11T21:12:37.214Z,38.22
2022-09-11T21:15:08.809Z,33.05
2022-09-11T21:17:38.793Z,28.27
2022-09-11T21:20:08.909Z,28.92
2022-09-11T21:22:38.513Z,27.35
2022-09-11T21:25:08.397Z,33.85
2022-09-11T21:27:37.721Z,35.28
2022-09-11T21:30:08.290Z,36.40
2022-09-11T21:32:37.781Z,26.05
2022-09-11T21:35:07.558Z,28.75
2022-09-11T21:37:36.869Z,24.88
2022-09-11T21:40:07.668Z,26.15
2022-09-11T21:42:37.121Z,31.20
2022-09-11T21:45:06.695Z,32.75
2022-09-11T21:47:36.035Z,33.28
2022-09-11T21:50:07.913Z,30.17
2022-09-11T21:52:37.533Z,32.35
2022-09-11T21:55:07.105Z,30.20
2022-09-11T21:57:36.379Z,36.90
2022-09-11T22:00:09.976Z,41.08
2022-09-11T22:02:39.031Z,32.17
2022-09-11T22:05:08.631Z,33.17
2022-09-11T22:07:38.399Z,32.67
2022-09-11T22:10:09.222Z,33.90
2022-09-11T22:12:38.555Z,36.80
2022-09-11T22:15:08.149Z,35.33
2022-09-11T22:17:37.563Z,34.10
2022-09-11T22:20:08.735Z,33.80
2022-09-11T22:22:39.970Z,31.75
2022-09-11T22:25:09.729Z,33.35
2022-09-11T22:27:41.080Z,34.25
2022-09-11T22:30:11.142Z,30.80
2022-09-11T22:32:40.958Z,31.15
2022-09-11T22:35:10.353Z,28.10
2022-09-11T22:37:39.811Z,26.42
2022-09-11T22:40:10.049Z,32.67
2022-09-11T22:42:39.472Z,33.45
2022-09-11T22:45:09.484Z,28.63
2022-09-11T22:47:38.695Z,29.23
2022-09-11T22:53:34.003Z,31.33
2022-09-11T22:56:07.351Z,27.73
2022-09-11T22:58:39.788Z,27.90
2022-09-11T23:01:16.769Z,28.90
2022-09-11T23:03:50.427Z,31.70
2022-09-11T23:06:38.999Z,30.55
2022-09-11T23:09:11.686Z,33.47
2022-09-11T23:11:42.345Z,32.40
2022-09-11T23:14:14.341Z,29.52
2022-09-11T23:19:16.129Z,34.38
2022-09-11T23:21:45.816Z,30.55
2022-09-11T23:24:15.652Z,32.85
2022-09-11T23:26:46.698Z,31.42
2022-09-11T23:29:16.396Z,32.47
2022-09-11T23:31:46.315Z,28.88
2022-09-11T23:34:17.800Z,36.42
2022-09-11T23:36:47.191Z,33.00
2022-09-11T23:39:16.756Z,28.05
2022-09-11T23:41:45.751Z,31.17
2022-09-11T23:44:16.128Z,32.42
2022-09-11T23:46:45.743Z,42.05
2022-09-11T23:49:16.636Z,40.60
2022-09-11T23:51:46.161Z,33.60
2022-09-11T23:54:15.336Z,34.58
2022-09-11T23:56:45.126Z,36.88
